sensor_id;sensor_type;location;lat;lon;timestamp;pressure;altitude;pressure_sealevel;temperature;humidity
77153;BME280;66124;51.146;17.072;2023-07-29T00:01:26;99544.81;;;19.12;71.03
77153;BME280;66124;51.146;17.072;2023-07-29T00:03:55;99542.87;;;19.09;71.00
77153;BME280;66124;51.146;17.072;2023-07-29T00:06:26;99540.58;;;19.06;71.24
77153;BME280;66124;51.146;17.072;2023-07-29T00:08:56;99533.10;;;19.01;71.27
77153;BME280;66124;51.146;17.072;2023-07-29T00:11:25;99534.89;;;18.99;71.27
77153;BME280;66124;51.146;17.072;2023-07-29T00:13:54;99535.29;;;18.96;71.37
77153;BME280;66124;51.146;17.072;2023-07-29T00:16:24;99543.27;;;18.92;71.28
77153;BME280;66124;51.146;17.072;2023-07-29T00:18:53;99544.64;;;18.87;71.26
77153;BME280;66124;51.146;17.072;2023-07-29T00:21:23;99542.97;;;18.81;71.31
77153;BME280;66124;51.146;17.072;2023-07-29T00:23:52;99542.69;;;18.76;71.39
77153;BME280;66124;51.146;17.072;2023-07-29T00:26:22;99546.42;;;18.70;71.36
77153;BME280;66124;51.146;17.072;2023-07-29T00:28:51;99545.70;;;18.64;71.62
77153;BME280;66124;51.146;17.072;2023-07-29T00:31:20;99543.37;;;18.57;71.58
77153;BME280;66124;51.146;17.072;2023-07-29T00:33:48;99546.08;;;18.52;71.56
77153;BME280;66124;51.146;17.072;2023-07-29T00:39:00;99545.08;;;18.43;71.80
77153;BME280;66124;51.146;17.072;2023-07-29T00:41:30;99546.41;;;18.35;71.87
77153;BME280;66124;51.146;17.072;2023-07-29T00:43:59;99543.50;;;18.29;72.09
77153;BME280;66124;51.146;17.072;2023-07-29T00:46:29;99542.29;;;18.23;72.09
77153;BME280;66124;51.146;17.072;2023-07-29T00:48:58;99543.33;;;18.18;72.48
77153;BME280;66124;51.146;17.072;2023-07-29T00:51:29;99548.17;;;18.13;72.63
77153;BME280;66124;51.146;17.072;2023-07-29T00:53:58;99549.23;;;18.09;72.67
77153;BME280;66124;51.146;17.072;2023-07-29T00:56:28;99554.57;;;18.05;72.70
77153;BME280;66124;51.146;17.072;2023-07-29T00:58:57;99557.48;;;18.00;72.80
77153;BME280;66124;51.146;17.072;2023-07-29T01:01:27;99556.97;;;17.95;72.68
77153;BME280;66124;51.146;17.072;2023-07-29T01:03:57;99550.98;;;17.88;73.08
77153;BME280;66124;51.146;17.072;2023-07-29T01:06:33;99555.55;;;17.87;73.01
77153;BME280;66124;51.146;17.072;2023-07-29T01:09:06;99552.77;;;17.83;73.15
77153;BME280;66124;51.146;17.072;2023-07-29T01:11:44;99549.52;;;17.80;73.19
77153;BME280;66124;51.146;17.072;2023-07-29T01:14:24;99547.18;;;17.78;73.37
77153;BME280;66124;51.146;17.072;2023-07-29T01:17:03;99544.64;;;17.75;73.39
77153;BME280;66124;51.146;17.072;2023-07-29T01:19:54;99542.42;;;17.73;73.62
77153;BME280;66124;51.146;17.072;2023-07-29T01:22:25;99534.65;;;17.71;73.75
77153;BME280;66124;51.146;17.072;2023-07-29T01:24:55;99537.77;;;17.69;73.72
77153;BME280;66124;51.146;17.072;2023-07-29T01:27:24;99538.21;;;17.67;73.53
77153;BME280;66124;51.146;17.072;2023-07-29T01:29:55;99541.16;;;17.65;73.73
77153;BME280;66124;51.146;17.072;2023-07-29T01:32:28;99538.21;;;17.64;73.76
77153;BME280;66124;51.146;17.072;2023-07-29T01:35:06;99541.23;;;17.62;73.66
77153;BME280;66124;51.146;17.072;2023-07-29T01:37:39;99540.22;;;17.59;73.85
77153;BME280;66124;51.146;17.072;2023-07-29T01:40:11;99545.45;;;17.57;73.80
77153;BME280;66124;51.146;17.072;2023-07-29T01:42:41;99544.86;;;17.54;73.92
77153;BME280;66124;51.146;17.072;2023-07-29T01:45:11;99542.45;;;17.51;73.92
77153;BME280;66124;51.146;17.072;2023-07-29T01:47:40;99546.95;;;17.49;74.03
77153;BME280;66124;51.146;17.072;2023-07-29T01:50:09;99547.92;;;17.47;74.07
77153;BME280;66124;51.146;17.072;2023-07-29T02:01:15;99544.20;;;17.41;74.22
77153;BME280;66124;51.146;17.072;2023-07-29T02:03:45;99541.75;;;17.38;74.08
77153;BME280;66124;51.146;17.072;2023-07-29T02:06:14;99541.13;;;17.36;74.37
77153;BME280;66124;51.146;17.072;2023-07-29T02:08:44;99550.45;;;17.35;74.41
77153;BME280;66124;51.146;17.072;2023-07-29T02:11:13;99551.69;;;17.33;74.56
77153;BME280;66124;51.146;17.072;2023-07-29T02:13:44;99554.15;;;17.31;74.75
77153;BME280;66124;51.146;17.072;2023-07-29T02:16:13;99552.98;;;17.29;74.77
77153;BME280;66124;51.146;17.072;2023-07-29T02:18:43;99555.65;;;17.26;74.85
77153;BME280;66124;51.146;17.072;2023-07-29T02:21:12;99556.56;;;17.24;74.71
77153;BME280;66124;51.146;17.072;2023-07-29T02:23:41;99553.20;;;17.23;74.72
77153;BME280;66124;51.146;17.072;2023-07-29T02:26:11;99549.33;;;17.21;74.93
77153;BME280;66124;51.146;17.072;2023-07-29T02:28:40;99545.56;;;17.19;75.09
77153;BME280;66124;51.146;17.072;2023-07-29T02:31:16;99547.34;;;17.18;74.99
77153;BME280;66124;51.146;17.072;2023-07-29T02:33:46;99541.71;;;17.17;75.06
77153;BME280;66124;51.146;17.072;2023-07-29T02:36:15;99537.25;;;17.17;75.10
77153;BME280;66124;51.146;17.072;2023-07-29T02:38:45;99537.19;;;17.16;75.18
77153;BME280;66124;51.146;17.072;2023-07-29T02:41:14;99540.41;;;17.15;75.40
77153;BME280;66124;51.146;17.072;2023-07-29T02:43:47;99538.56;;;17.13;75.40
77153;BME280;66124;51.146;17.072;2023-07-29T02:46:17;99539.96;;;17.10;75.55
77153;BME280;66124;51.146;17.072;2023-07-29T02:48:47;99536.02;;;17.08;75.67
77153;BME280;66124;51.146;17.072;2023-07-29T02:51:16;99538.20;;;17.05;75.82
77153;BME280;66124;51.146;17.072;2023-07-29T02:53:46;99538.33;;;17.03;75.75
77153;BME280;66124;51.146;17.072;2023-07-29T02:56:15;99539.40;;;17.04;75.78
77153;BME280;66124;51.146;17.072;2023-07-29T02:58:45;99541.02;;;17.02;75.77
77153;BME280;66124;51.146;17.072;2023-07-29T03:01:14;99542.33;;;17.00;75.79
77153;BME280;66124;51.146;17.072;2023-07-29T03:03:44;99542.68;;;17.00;75.76
77153;BME280;66124;51.146;17.072;2023-07-29T03:06:15;99536.81;;;17.00;76.03
77153;BME280;66124;51.146;17.072;2023-07-29T03:08:44;99533.80;;;17.00;76.25
77153;BME280;66124;51.146;17.072;2023-07-29T03:11:13;99536.20;;;17.00;75.95
77153;BME280;66124;51.146;17.072;2023-07-29T03:13:41;99543.98;;;17.00;75.94
77153;BME280;66124;51.146;17.072;2023-07-29T03:21:35;99549.91;;;17.01;76.56
77153;BME280;66124;51.146;17.072;2023-07-29T03:24:04;99557.31;;;17.01;76.47
77153;BME280;66124;51.146;17.072;2023-07-29T03:26:34;99558.21;;;17.04;76.75
77153;BME280;66124;51.146;17.072;2023-07-29T03:29:03;99557.76;;;17.05;76.97
77153;BME280;66124;51.146;17.072;2023-07-29T03:31:33;99555.04;;;17.08;76.81
77153;BME280;66124;51.146;17.072;2023-07-29T03:34:03;99559.96;;;17.11;76.84
77153;BME280;66124;51.146;17.072;2023-07-29T03:36:33;99557.58;;;17.15;77.05
77153;BME280;66124;51.146;17.072;2023-07-29T03:39:02;99557.08;;;17.17;76.99
77153;BME280;66124;51.146;17.072;2023-07-29T03:41:32;99559.33;;;17.20;76.95
77153;BME280;66124;51.146;17.072;2023-07-29T03:44:02;99554.33;;;17.23;77.03
77153;BME280;66124;51.146;17.072;2023-07-29T03:46:32;99555.36;;;17.27;77.01
77153;BME280;66124;51.146;17.072;2023-07-29T03:49:02;99555.22;;;17.32;76.80
77153;BME280;66124;51.146;17.072;2023-07-29T03:51:31;99553.90;;;17.35;76.67
77153;BME280;66124;51.146;17.072;2023-07-29T03:54:00;99551.30;;;17.39;76.47
77153;BME280;66124;51.146;17.072;2023-07-29T03:56:30;99553.61;;;17.44;76.31
77153;BME280;66124;51.146;17.072;2023-07-29T03:59:05;99554.22;;;17.47;76.27
77153;BME280;66124;51.146;17.072;2023-07-29T04:01:34;99559.39;;;17.50;76.07
77153;BME280;66124;51.146;17.072;2023-07-29T04:04:05;99557.80;;;17.53;76.01
77153;BME280;66124;51.146;17.072;2023-07-29T04:06:34;99561.54;;;17.55;75.95
77153;BME280;66124;51.146;17.072;2023-07-29T04:09:04;99565.40;;;17.57;75.97
77153;BME280;66124;51.146;17.072;2023-07-29T04:11:33;99565.86;;;17.59;75.97
77153;BME280;66124;51.146;17.072;2023-07-29T04:14:02;99569.80;;;17.61;75.90
77153;BME280;66124;51.146;17.072;2023-07-29T04:16:32;99566.37;;;17.64;76.18
77153;BME280;66124;51.146;17.072;2023-07-29T04:19:01;99566.77;;;17.65;76.46
77153;BME280;66124;51.146;17.072;2023-07-29T04:21:31;99565.92;;;17.69;76.45
77153;BME280;66124;51.146;17.072;2023-07-29T04:24:00;99562.99;;;17.72;76.48
77153;BME280;66124;51.146;17.072;2023-07-29T04:26:30;99568.00;;;17.78;76.41
77153;BME280;66124;51.146;17.072;2023-07-29T04:28:59;99571.84;;;17.85;76.47
77153;BME280;66124;51.146;17.072;2023-07-29T04:31:29;99570.86;;;17.93;76.39
77153;BME280;66124;51.146;17.072;2023-07-29T04:33:58;99573.14;;;18.02;76.24
77153;BME280;66124;51.146;17.072;2023-07-29T04:44:00;99574.35;;;18.43;75.93
77153;BME280;66124;51.146;17.072;2023-07-29T04:46:30;99573.13;;;18.46;75.65
77153;BME280;66124;51.146;17.072;2023-07-29T04:48:59;99572.61;;;18.52;75.46
77153;BME280;66124;51.146;17.072;2023-07-29T04:51:29;99576.53;;;18.57;75.29
77153;BME280;66124;51.146;17.072;2023-07-29T04:53:58;99577.23;;;18.62;75.07
77153;BME280;66124;51.146;17.072;2023-07-29T04:56:29;99586.73;;;18.65;74.95
77153;BME280;66124;51.146;17.072;2023-07-29T04:58:58;99588.06;;;18.68;74.87
77153;BME280;66124;51.146;17.072;2023-07-29T05:01:28;99588.14;;;18.70;74.64
77153;BME280;66124;51.146;17.072;2023-07-29T05:03:57;99586.39;;;18.71;74.56
77153;BME280;66124;51.146;17.072;2023-07-29T05:06:26;99580.43;;;18.72;74.49
77153;BME280;66124;51.146;17.072;2023-07-29T05:08:58;99579.43;;;18.74;74.32
77153;BME280;66124;51.146;17.072;2023-07-29T05:11:27;99576.74;;;18.76;74.43
77153;BME280;66124;51.146;17.072;2023-07-29T05:13:56;99580.21;;;18.81;74.28
77153;BME280;66124;51.146;17.072;2023-07-29T05:16:26;99584.68;;;18.88;74.21
77153;BME280;66124;51.146;17.072;2023-07-29T05:18:55;99584.74;;;18.97;74.22
77153;BME280;66124;51.146;17.072;2023-07-29T05:21:25;99583.49;;;19.09;74.00
77153;BME280;66124;51.146;17.072;2023-07-29T05:23:54;99584.35;;;19.24;73.88
77153;BME280;66124;51.146;17.072;2023-07-29T05:26:24;99584.34;;;19.39;73.86
77153;BME280;66124;51.146;17.072;2023-07-29T05:28:54;99584.79;;;19.57;73.57
77153;BME280;66124;51.146;17.072;2023-07-29T05:31:23;99592.40;;;19.77;73.37
77153;BME280;66124;51.146;17.072;2023-07-29T05:33:52;99586.61;;;19.95;73.08
77153;BME280;66124;51.146;17.072;2023-07-29T05:36:22;99587.92;;;20.12;72.74
77153;BME280;66124;51.146;17.072;2023-07-29T05:38:53;99587.25;;;20.26;72.46
77153;BME280;66124;51.146;17.072;2023-07-29T05:41:22;99581.23;;;20.39;72.22
77153;BME280;66124;51.146;17.072;2023-07-29T05:43:51;99586.14;;;20.55;71.71
77153;BME280;66124;51.146;17.072;2023-07-29T05:46:21;99587.45;;;20.68;71.45
77153;BME280;66124;51.146;17.072;2023-07-29T05:48:50;99586.59;;;20.80;71.32
77153;BME280;66124;51.146;17.072;2023-07-29T05:51:20;99585.62;;;20.91;71.13
77153;BME280;66124;51.146;17.072;2023-07-29T05:53:48;99590.05;;;20.99;70.68
77153;BME280;66124;51.146;17.072;2023-07-29T05:56:15;99593.77;;;21.10;70.65
77153;BME280;66124;51.146;17.072;2023-07-29T06:01:40;99599.86;;;21.36;70.24
77153;BME280;66124;51.146;17.072;2023-07-29T06:04:10;99599.67;;;21.47;69.96
77153;BME280;66124;51.146;17.072;2023-07-29T06:06:39;99594.05;;;21.57;69.62
77153;BME280;66124;51.146;17.072;2023-07-29T06:09:08;99589.08;;;21.70;69.09
77153;BME280;66124;51.146;17.072;2023-07-29T06:11:38;99591.94;;;21.81;68.72
77153;BME280;66124;51.146;17.072;2023-07-29T06:14:08;99591.53;;;21.91;68.08
77153;BME280;66124;51.146;17.072;2023-07-29T06:16:38;99594.27;;;21.98;67.64
77153;BME280;66124;51.146;17.072;2023-07-29T06:19:07;99590.69;;;22.05;67.45
77153;BME280;66124;51.146;17.072;2023-07-29T06:21:37;99590.94;;;22.16;67.19
77153;BME280;66124;51.146;17.072;2023-07-29T06:24:07;99596.30;;;22.29;66.90
77153;BME280;66124;51.146;17.072;2023-07-29T06:26:36;99599.45;;;22.43;66.73
77153;BME280;66124;51.146;17.072;2023-07-29T06:29:06;99601.25;;;22.53;66.26
77153;BME280;66124;51.146;17.072;2023-07-29T06:31:35;99598.23;;;22.64;66.01
77153;BME280;66124;51.146;17.072;2023-07-29T06:34:04;99596.81;;;22.75;65.68
77153;BME280;66124;51.146;17.072;2023-07-29T06:36:34;99596.19;;;22.84;65.46
77153;BME280;66124;51.146;17.072;2023-07-29T06:39:03;99597.45;;;22.94;65.53
77153;BME280;66124;51.146;17.072;2023-07-29T06:41:33;99594.66;;;23.05;65.29
77153;BME280;66124;51.146;17.072;2023-07-29T06:44:03;99596.93;;;23.12;64.99
77153;BME280;66124;51.146;17.072;2023-07-29T06:46:33;99597.44;;;23.18;64.64
77153;BME280;66124;51.146;17.072;2023-07-29T06:49:02;99597.95;;;23.22;64.47
77153;BME280;66124;51.146;17.072;2023-07-29T06:51:32;99595.51;;;23.28;64.27
77153;BME280;66124;51.146;17.072;2023-07-29T06:54:01;99595.33;;;23.36;64.19
77153;BME280;66124;51.146;17.072;2023-07-29T06:56:31;99594.64;;;23.43;63.94
77153;BME280;66124;51.146;17.072;2023-07-29T06:59:00;99592.92;;;23.51;63.89
77153;BME280;66124;51.146;17.072;2023-07-29T07:01:30;99582.10;;;23.58;63.49
77153;BME280;66124;51.146;17.072;2023-07-29T07:03:59;99577.82;;;23.64;63.34
77153;BME280;66124;51.146;17.072;2023-07-29T07:06:29;99573.99;;;23.72;63.14
77153;BME280;66124;51.146;17.072;2023-07-29T07:08:58;99574.78;;;23.81;62.93
77153;BME280;66124;51.146;17.072;2023-07-29T07:11:26;99575.52;;;23.88;62.59
77153;BME280;66124;51.146;17.072;2023-07-29T07:13:55;99580.98;;;23.92;62.51
77153;BME280;66124;51.146;17.072;2023-07-29T07:21:32;99578.00;;;24.11;61.82
77153;BME280;66124;51.146;17.072;2023-07-29T07:24:02;99574.34;;;24.12;61.79
77153;BME280;66124;51.146;17.072;2023-07-29T07:26:31;99576.86;;;24.17;61.65
77153;BME280;66124;51.146;17.072;2023-07-29T07:29:01;99587.63;;;24.20;61.29
77153;BME280;66124;51.146;17.072;2023-07-29T07:31:34;99570.42;;;24.13;61.09
77153;BME280;66124;51.146;17.072;2023-07-29T07:34:03;99581.62;;;24.21;60.94
77153;BME280;66124;51.146;17.072;2023-07-29T07:36:32;99587.09;;;24.19;60.83
77153;BME280;66124;51.146;17.072;2023-07-29T07:39:02;99590.86;;;24.19;60.77
77153;BME280;66124;51.146;17.072;2023-07-29T07:41:31;99584.48;;;24.22;60.65
77153;BME280;66124;51.146;17.072;2023-07-29T07:44:01;99585.61;;;24.28;60.54
77153;BME280;66124;51.146;17.072;2023-07-29T07:46:30;99583.37;;;24.35;60.56
77153;BME280;66124;51.146;17.072;2023-07-29T07:49:00;99582.91;;;24.45;60.54
77153;BME280;66124;51.146;17.072;2023-07-29T07:51:29;99581.43;;;24.57;60.40
77153;BME280;66124;51.146;17.072;2023-07-29T07:53:59;99581.95;;;24.67;60.12
77153;BME280;66124;51.146;17.072;2023-07-29T07:56:28;99578.92;;;24.73;59.97
77153;BME280;66124;51.146;17.072;2023-07-29T07:58:58;99578.54;;;24.81;60.04
77153;BME280;66124;51.146;17.072;2023-07-29T08:01:27;99577.09;;;24.88;59.53
77153;BME280;66124;51.146;17.072;2023-07-29T08:03:56;99574.81;;;24.90;59.35
77153;BME280;66124;51.146;17.072;2023-07-29T08:06:26;99571.34;;;24.92;59.06
77153;BME280;66124;51.146;17.072;2023-07-29T08:08:55;99567.50;;;24.97;59.03
77153;BME280;66124;51.146;17.072;2023-07-29T08:11:25;99565.64;;;25.03;58.70
77153;BME280;66124;51.146;17.072;2023-07-29T08:13:54;99566.16;;;25.04;58.35
77153;BME280;66124;51.146;17.072;2023-07-29T08:16:24;99558.47;;;25.06;58.49
77153;BME280;66124;51.146;17.072;2023-07-29T08:18:53;99560.17;;;25.12;58.34
77153;BME280;66124;51.146;17.072;2023-07-29T08:21:22;99558.75;;;25.17;58.15
77153;BME280;66124;51.146;17.072;2023-07-29T08:23:52;99554.65;;;25.25;57.90
77153;BME280;66124;51.146;17.072;2023-07-29T08:26:21;99555.19;;;25.36;57.50
77153;BME280;66124;51.146;17.072;2023-07-29T08:28:50;99548.66;;;25.48;57.22
77153;BME280;66124;51.146;17.072;2023-07-29T08:31:20;99545.04;;;25.59;57.07
77153;BME280;66124;51.146;17.072;2023-07-29T08:33:48;99544.29;;;25.69;56.42
77153;BME280;66124;51.146;17.072;2023-07-29T08:46:14;99527.12;;;26.10;54.92
77153;BME280;66124;51.146;17.072;2023-07-29T08:48:44;99522.89;;;26.11;54.99
77153;BME280;66124;51.146;17.072;2023-07-29T08:51:15;99517.23;;;26.19;54.75
77153;BME280;66124;51.146;17.072;2023-07-29T08:53:46;99515.30;;;26.31;54.50
77153;BME280;66124;51.146;17.072;2023-07-29T08:56:16;99520.08;;;26.40;54.37
77153;BME280;66124;51.146;17.072;2023-07-29T08:58:46;99519.56;;;26.47;53.99
77153;BME280;66124;51.146;17.072;2023-07-29T09:01:16;99517.13;;;26.42;53.50
77153;BME280;66124;51.146;17.072;2023-07-29T09:03:46;99512.21;;;26.36;53.43
77153;BME280;66124;51.146;17.072;2023-07-29T09:06:16;99509.00;;;26.34;53.38
77153;BME280;66124;51.146;17.072;2023-07-29T09:08:46;99510.63;;;26.29;53.21
77153;BME280;66124;51.146;17.072;2023-07-29T09:11:18;99509.35;;;26.21;52.94
77153;BME280;66124;51.146;17.072;2023-07-29T09:13:48;99511.91;;;26.20;53.00
77153;BME280;66124;51.146;17.072;2023-07-29T09:16:17;99515.02;;;26.19;52.86
77153;BME280;66124;51.146;17.072;2023-07-29T09:18:48;99512.63;;;26.20;53.05
77153;BME280;66124;51.146;17.072;2023-07-29T09:21:20;99509.79;;;26.27;53.16
77153;BME280;66124;51.146;17.072;2023-07-29T09:23:52;99514.81;;;26.33;52.92
77153;BME280;66124;51.146;17.072;2023-07-29T09:26:25;99514.47;;;26.39;52.87
77153;BME280;66124;51.146;17.072;2023-07-29T09:28:55;99515.06;;;26.46;52.42
77153;BME280;66124;51.146;17.072;2023-07-29T09:31:26;99516.23;;;26.51;52.33
77153;BME280;66124;51.146;17.072;2023-07-29T09:33:56;99510.02;;;26.57;52.37
77153;BME280;66124;51.146;17.072;2023-07-29T09:36:26;99510.21;;;26.65;52.00
77153;BME280;66124;51.146;17.072;2023-07-29T09:38:57;99508.75;;;26.77;51.81
77153;BME280;66124;51.146;17.072;2023-07-29T09:41:28;99506.70;;;26.87;51.53
77153;BME280;66124;51.146;17.072;2023-07-29T09:44:00;99498.73;;;26.95;51.38
77153;BME280;66124;51.146;17.072;2023-07-29T09:46:34;99495.73;;;27.03;51.33
77153;BME280;66124;51.146;17.072;2023-07-29T09:49:05;99498.25;;;27.14;50.76
77153;BME280;66124;51.146;17.072;2023-07-29T09:51:38;99496.52;;;27.25;50.39
77153;BME280;66124;51.146;17.072;2023-07-29T09:54:08;99493.33;;;27.35;50.38
77153;BME280;66124;51.146;17.072;2023-07-29T09:56:41;99495.88;;;27.47;50.04
77153;BME280;66124;51.146;17.072;2023-07-29T10:07:12;99483.64;;;27.96;49.10
77153;BME280;66124;51.146;17.072;2023-07-29T10:09:43;99483.52;;;28.10;48.83
77153;BME280;66124;51.146;17.072;2023-07-29T10:12:13;99480.66;;;28.22;48.68
77153;BME280;66124;51.146;17.072;2023-07-29T10:14:42;99480.44;;;28.30;48.55
77153;BME280;66124;51.146;17.072;2023-07-29T10:17:13;99482.40;;;28.35;48.28
77153;BME280;66124;51.146;17.072;2023-07-29T10:19:45;99479.73;;;28.38;47.72
77153;BME280;66124;51.146;17.072;2023-07-29T10:22:19;99486.02;;;28.38;47.75
77153;BME280;66124;51.146;17.072;2023-07-29T10:24:50;99488.84;;;28.42;47.65
77153;BME280;66124;51.146;17.072;2023-07-29T10:27:20;99488.02;;;28.45;47.42
77153;BME280;66124;51.146;17.072;2023-07-29T10:29:51;99484.88;;;28.44;47.02
77153;BME280;66124;51.146;17.072;2023-07-29T10:32:26;99480.09;;;28.36;47.14
77153;BME280;66124;51.146;17.072;2023-07-29T10:34:55;99478.75;;;28.30;46.97
77153;BME280;66124;51.146;17.072;2023-07-29T10:37:25;99481.38;;;28.26;47.11
77153;BME280;66124;51.146;17.072;2023-07-29T10:39:56;99479.83;;;28.13;46.83
77153;BME280;66124;51.146;17.072;2023-07-29T10:42:25;99476.89;;;27.91;46.92
77153;BME280;66124;51.146;17.072;2023-07-29T10:44:55;99474.39;;;27.78;47.30
77153;BME280;66124;51.146;17.072;2023-07-29T10:47:25;99468.08;;;27.76;47.09
77153;BME280;66124;51.146;17.072;2023-07-29T10:49:54;99462.11;;;27.69;47.15
77153;BME280;66124;51.146;17.072;2023-07-29T10:52:42;99459.29;;;27.63;47.58
77153;BME280;66124;51.146;17.072;2023-07-29T10:55:34;99453.16;;;27.67;47.73
77153;BME280;66124;51.146;17.072;2023-07-29T10:58:09;99444.15;;;27.81;46.93
77153;BME280;66124;51.146;17.072;2023-07-29T11:00:42;99439.15;;;27.87;46.25
77153;BME280;66124;51.146;17.072;2023-07-29T11:03:13;99431.81;;;27.86;46.20
77153;BME280;66124;51.146;17.072;2023-07-29T11:05:48;99432.07;;;27.94;46.46
77153;BME280;66124;51.146;17.072;2023-07-29T11:08:20;99406.14;;;28.00;46.51
77153;BME280;66124;51.146;17.072;2023-07-29T11:11:11;99421.35;;;28.33;46.36
77153;BME280;66124;51.146;17.072;2023-07-29T11:13:43;99418.63;;;28.56;45.67
77153;BME280;66124;51.146;17.072;2023-07-29T11:16:16;99415.10;;;28.71;45.39
77153;BME280;66124;51.146;17.072;2023-07-29T11:18:44;99411.75;;;28.84;44.99
77153;BME280;66124;51.146;17.072;2023-07-29T11:28:39;99405.40;;;29.55;42.92
77153;BME280;66124;51.146;17.072;2023-07-29T11:31:09;99404.88;;;29.60;42.11
77153;BME280;66124;51.146;17.072;2023-07-29T11:33:40;99399.44;;;29.60;42.17
77153;BME280;66124;51.146;17.072;2023-07-29T11:36:18;99399.80;;;29.66;42.23
77153;BME280;66124;51.146;17.072;2023-07-29T11:38:48;99394.56;;;29.67;42.48
77153;BME280;66124;51.146;17.072;2023-07-29T11:41:20;99390.96;;;29.76;42.53
77153;BME280;66124;51.146;17.072;2023-07-29T11:43:50;99387.42;;;30.05;42.46
77153;BME280;66124;51.146;17.072;2023-07-29T11:46:23;99384.80;;;30.36;41.50
77153;BME280;66124;51.146;17.072;2023-07-29T11:48:54;99383.52;;;30.40;41.13
77153;BME280;66124;51.146;17.072;2023-07-29T11:51:25;99379.81;;;30.46;40.97
77153;BME280;66124;51.146;17.072;2023-07-29T11:53:55;99378.90;;;30.56;40.97
77153;BME280;66124;51.146;17.072;2023-07-29T11:56:25;99378.50;;;30.67;40.39
77153;BME280;66124;51.146;17.072;2023-07-29T11:58:55;99376.83;;;30.72;40.30
77153;BME280;66124;51.146;17.072;2023-07-29T12:01:24;99380.25;;;30.57;39.87
77153;BME280;66124;51.146;17.072;2023-07-29T12:03:53;99376.69;;;30.30;40.16
77153;BME280;66124;51.146;17.072;2023-07-29T12:06:24;99376.20;;;30.10;40.46
77153;BME280;66124;51.146;17.072;2023-07-29T12:08:53;99374.27;;;30.06;40.36
77153;BME280;66124;51.146;17.072;2023-07-29T12:11:23;99377.63;;;30.16;40.09
77153;BME280;66124;51.146;17.072;2023-07-29T12:13:54;99378.61;;;30.29;39.38
77153;BME280;66124;51.146;17.072;2023-07-29T12:16:23;99383.27;;;30.36;38.77
77153;BME280;66124;51.146;17.072;2023-07-29T12:18:53;99379.98;;;30.46;38.70
77153;BME280;66124;51.146;17.072;2023-07-29T12:21:22;99372.02;;;30.66;38.38
77153;BME280;66124;51.146;17.072;2023-07-29T12:23:52;99366.96;;;30.84;37.75
77153;BME280;66124;51.146;17.072;2023-07-29T12:26:22;99360.53;;;30.97;37.80
77153;BME280;66124;51.146;17.072;2023-07-29T12:28:56;99360.24;;;31.11;37.28
77153;BME280;66124;51.146;17.072;2023-07-29T12:31:32;99338.06;;;30.96;37.05
77153;BME280;66124;51.146;17.072;2023-07-29T12:34:01;99362.71;;;31.03;37.06
77153;BME280;66124;51.146;17.072;2023-07-29T12:36:43;99363.09;;;30.72;36.67
77153;BME280;66124;51.146;17.072;2023-07-29T12:47:23;99355.38;;;28.93;38.52
77153;BME280;66124;51.146;17.072;2023-07-29T12:49:53;99346.55;;;28.65;39.06
77153;BME280;66124;51.146;17.072;2023-07-29T12:52:22;99348.15;;;28.54;39.42
77153;BME280;66124;51.146;17.072;2023-07-29T12:54:51;99347.52;;;28.50;39.71
77153;BME280;66124;51.146;17.072;2023-07-29T12:57:21;99332.48;;;28.52;39.58
77153;BME280;66124;51.146;17.072;2023-07-29T12:59:52;99333.91;;;28.49;39.85
77153;BME280;66124;51.146;17.072;2023-07-29T13:02:21;99334.83;;;28.44;40.14
77153;BME280;66124;51.146;17.072;2023-07-29T13:04:50;99331.18;;;28.35;40.50
77153;BME280;66124;51.146;17.072;2023-07-29T13:07:20;99334.58;;;28.33;40.64
77153;BME280;66124;51.146;17.072;2023-07-29T13:09:49;99336.42;;;28.38;40.33
77153;BME280;66124;51.146;17.072;2023-07-29T13:12:18;99336.32;;;28.35;40.15
77153;BME280;66124;51.146;17.072;2023-07-29T13:14:48;99333.61;;;28.32;40.24
77153;BME280;66124;51.146;17.072;2023-07-29T13:17:17;99338.73;;;28.27;40.36
77153;BME280;66124;51.146;17.072;2023-07-29T13:19:47;99336.24;;;28.20;40.38
77153;BME280;66124;51.146;17.072;2023-07-29T13:22:16;99340.99;;;28.21;40.50
77153;BME280;66124;51.146;17.072;2023-07-29T13:24:45;99338.75;;;28.38;40.43
77153;BME280;66124;51.146;17.072;2023-07-29T13:27:15;99330.41;;;28.57;40.31
77153;BME280;66124;51.146;17.072;2023-07-29T13:29:44;99326.40;;;28.81;40.09
77153;BME280;66124;51.146;17.072;2023-07-29T13:32:13;99328.05;;;29.17;39.94
77153;BME280;66124;51.146;17.072;2023-07-29T13:34:43;99327.89;;;29.50;39.26
77153;BME280;66124;51.146;17.072;2023-07-29T13:37:12;99322.01;;;29.67;39.14
77153;BME280;66124;51.146;17.072;2023-07-29T13:39:41;99323.69;;;29.83;39.14
77153;BME280;66124;51.146;17.072;2023-07-29T13:42:11;99321.42;;;29.94;38.88
77153;BME280;66124;51.146;17.072;2023-07-29T13:44:40;99321.85;;;29.93;38.60
77153;BME280;66124;51.146;17.072;2023-07-29T13:47:09;99320.20;;;29.70;38.74
77153;BME280;66124;51.146;17.072;2023-07-29T13:49:39;99316.97;;;29.57;39.00
77153;BME280;66124;51.146;17.072;2023-07-29T13:52:08;99313.92;;;29.74;39.03
77153;BME280;66124;51.146;17.072;2023-07-29T13:54:38;99316.52;;;30.21;38.73
77153;BME280;66124;51.146;17.072;2023-07-29T13:57:07;99318.30;;;30.54;38.16
77153;BME280;66124;51.146;17.072;2023-07-29T13:59:35;99311.23;;;30.56;38.09
77153;BME280;66124;51.146;17.072;2023-07-29T14:07:05;99301.97;;;30.27;37.99
77153;BME280;66124;51.146;17.072;2023-07-29T14:09:34;99294.20;;;30.33;38.27
77153;BME280;66124;51.146;17.072;2023-07-29T14:12:04;99285.39;;;30.75;37.47
77153;BME280;66124;51.146;17.072;2023-07-29T14:14:34;99279.92;;;31.02;37.21
77153;BME280;66124;51.146;17.072;2023-07-29T14:17:03;99285.83;;;30.95;37.53